Time;durP1;ratioP1;P1;durP2;ratioP2;P2;SDS_P1;SDS_P2;PMS_P1;PMS_P2;Temp;Humidity;BMP_temperature;BMP_pressure;BME280_temperature;BME280_humidity;BME280_pressure;Samples;Min_cycle;Max_cycle;Signal;HPM_P1;HPM_P2
2020/12/25 00:00:25;;;;;;;134.05;45.65;;;;;;;;;;5076554;28;20366;-66
2020/12/25 00:02:52;;;;;;;124.25;47.05;;;;;;;;;;5076627;28;20065;-66
2020/12/25 00:05:18;;;;;;;159.27;46.92;;;;;;;;;;5076250;28;20085;-66
2020/12/25 00:07:44;;;;;;;170.48;47.97;;;;;;;;;;5076033;28;20017;-66
2020/12/25 00:10:10;;;;;;;129.38;46.60;;;;;;;;;;5074522;28;20036;-66
2020/12/25 00:12:37;;;;;;;137.43;45.13;;;;;;;;;;5075832;28;20017;-66
2020/12/25 00:15:03;;;;;;;156.15;45.53;;;;;;;;;;5076303;28;20039;-66
2020/12/25 00:17:29;;;;;;;130.85;44.83;;;;;;;;;;5076029;28;20024;-66
2020/12/25 00:19:55;;;;;;;110.60;45.95;;;;;;;;;;5075823;28;20029;-66
2020/12/25 00:22:22;;;;;;;134.98;45.05;;;;;;;;;;5076039;28;20047;-66
2020/12/25 00:24:48;;;;;;;114.18;43.65;;;;;;;;;;5075540;28;20039;-66
2020/12/25 00:27:14;;;;;;;108.88;43.35;;;;;;;;;;5075424;28;20095;-66
2020/12/25 00:29:40;;;;;;;97.43;43.70;;;;;;;;;;5075597;28;20033;-66
2020/12/25 00:32:06;;;;;;;140.98;44.20;;;;;;;;;;5075560;28;20036;-67
2020/12/25 00:34:33;;;;;;;104.07;42.53;;;;;;;;;;5057504;28;20033;-66
2020/12/25 00:36:59;;;;;;;108.55;45.33;;;;;;;;;;5075344;28;20389;-67
2020/12/25 00:39:25;;;;;;;101.18;42.78;;;;;;;;;;5075335;28;20386;-66
2020/12/25 00:41:51;;;;;;;95.07;43.17;;;;;;;;;;5075565;28;20114;-65
2020/12/25 00:44:18;;;;;;;107.55;44.65;;;;;;;;;;5075363;28;20040;-66
2020/12/25 00:46:44;;;;;;;97.10;42.35;;;;;;;;;;5057296;28;20031;-66
2020/12/25 00:49:11;;;;;;;95.15;42.58;;;;;;;;;;5074923;28;20041;-66
2020/12/25 00:51:37;;;;;;;91.03;42.20;;;;;;;;;;5075442;28;20440;-66
2020/12/25 00:54:04;;;;;;;85.15;41.15;;;;;;;;;;5075119;28;20033;-66
2020/12/25 00:56:30;;;;;;;86.60;41.05;;;;;;;;;;5074847;28;20094;-66
2020/12/25 00:58:56;;;;;;;90.93;41.67;;;;;;;;;;5075060;28;20025;-66
2020/12/25 01:01:22;;;;;;;78.85;38.53;;;;;;;;;;5074854;28;20061;-66
2020/12/25 01:03:48;;;;;;;74.82;36.60;;;;;;;;;;5074784;28;20473;-66
2020/12/25 01:06:19;;;;;;;91.00;40.72;;;;;;;;;;5074828;28;20389;-66
2020/12/25 01:08:45;;;;;;;75.35;38.63;;;;;;;;;;5074692;28;20024;-65
2020/12/25 01:11:12;;;;;;;82.78;37.55;;;;;;;;;;5056784;28;20029;-66
2020/12/25 01:13:38;;;;;;;83.13;38.70;;;;;;;;;;5074959;28;20373;-66
2020/12/25 01:16:05;;;;;;;80.38;38.75;;;;;;;;;;5074608;28;20035;-66
2020/12/25 01:18:32;;;;;;;80.47;37.75;;;;;;;;;;5074783;28;20085;-66
2020/12/25 01:20:58;;;;;;;81.03;37.42;;;;;;;;;;5073995;28;20461;-66
2020/12/25 01:23:24;;;;;;;75.10;36.05;;;;;;;;;;5074356;28;20021;-66
2020/12/25 01:25:51;;;;;;;80.32;38.08;;;;;;;;;;5056626;28;20064;-65
2020/12/25 01:28:17;;;;;;;75.47;36.15;;;;;;;;;;5074316;28;20035;-66
2020/12/25 01:30:43;;;;;;;72.50;36.60;;;;;;;;;;5074541;28;20044;-66
2020/12/25 01:33:09;;;;;;;70.30;35.53;;;;;;;;;;5074130;28;20052;-66
2020/12/25 01:35:36;;;;;;;68.97;35.85;;;;;;;;;;5074571;28;20126;-66
2020/12/25 01:38:02;;;;;;;71.95;35.78;;;;;;;;;;5073972;28;20028;-66
2020/12/25 01:40:28;;;;;;;69.20;35.53;;;;;;;;;;5074078;28;20435;-66
2020/12/25 01:42:55;;;;;;;67.03;36.05;;;;;;;;;;5074100;28;20025;-66
2020/12/25 01:45:21;;;;;;;71.72;34.00;;;;;;;;;;5056165;28;20089;-66
2020/12/25 01:47:47;;;;;;;73.07;35.67;;;;;;;;;;5074093;28;20048;-66
2020/12/25 01:50:15;;;;;;;73.47;35.72;;;;;;;;;;5073851;28;20033;-66
2020/12/25 01:52:41;;;;;;;73.72;36.97;;;;;;;;;;5073867;28;20024;-66
2020/12/25 01:55:09;;;;;;;71.70;35.45;;;;;;;;;;5073767;28;20086;-67
2020/12/25 01:57:35;;;;;;;75.45;37.15;;;;;;;;;;5073801;28;20025;-66
2020/12/25 02:00:02;;;;;;;84.18;37.15;;;;;;;;;;5073711;28;20039;-66
2020/12/25 02:02:29;;;;;;;82.25;37.97;;;;;;;;;;5073870;28;20044;-66
2020/12/25 02:04:55;;;;;;;76.53;36.50;;;;;;;;;;5073912;28;20453;-66
2020/12/25 02:07:21;;;;;;;79.55;36.35;;;;;;;;;;5073815;28;20059;-66
2020/12/25 02:09:47;;;;;;;79.53;36.83;;;;;;;;;;5073763;28;20091;-66
2020/12/25 02:12:14;;;;;;;82.00;37.25;;;;;;;;;;5073940;28;20462;-66
2020/12/25 02:14:41;;;;;;;86.65;36.50;;;;;;;;;;5073527;28;20024;-66
2020/12/25 02:17:07;;;;;;;93.40;39.15;;;;;;;;;;5073572;28;20024;-66
2020/12/25 02:19:36;;;;;;;92.32;36.22;;;;;;;;;;5073786;28;20061;-66
2020/12/25 02:22:03;;;;;;;101.13;37.25;;;;;;;;;;5073216;28;20036;-66
2020/12/25 02:24:29;;;;;;;99.28;37.63;;;;;;;;;;5073344;28;20028;-66
2020/12/25 02:26:55;;;;;;;86.75;36.00;;;;;;;;;;5073273;28;20075;-66
2020/12/25 02:29:21;;;;;;;93.57;39.30;;;;;;;;;;5073268;28;20072;-66
2020/12/25 02:31:47;;;;;;;93.85;35.83;;;;;;;;;;5073347;28;20021;-66
2020/12/25 02:34:13;;;;;;;86.53;35.38;;;;;;;;;;5072536;28;20103;-65
2020/12/25 02:36:40;;;;;;;88.40;35.20;;;;;;;;;;5073128;28;20063;-65
2020/12/25 02:39:06;;;;;;;94.47;35.53;;;;;;;;;;5073401;28;20380;-66
2020/12/25 02:41:32;;;;;;;101.53;36.88;;;;;;;;;;5073416;28;20024;-65
2020/12/25 02:43:59;;;;;;;97.10;36.67;;;;;;;;;;5073483;28;20047;-65
2020/12/25 02:46:28;;;;;;;93.78;34.50;;;;;;;;;;5073458;28;20074;-66
2020/12/25 02:48:54;;;;;;;96.47;35.13;;;;;;;;;;5073243;28;20037;-65
2020/12/25 02:51:20;;;;;;;102.20;37.47;;;;;;;;;;5073016;28;20029;-66
2020/12/25 02:53:47;;;;;;;102.78;37.33;;;;;;;;;;5073383;28;20097;-66
2020/12/25 02:56:17;;;;;;;105.25;37.15;;;;;;;;;;5072993;28;20412;-66
2020/12/25 02:58:43;;;;;;;107.10;36.47;;;;;;;;;;5073251;28;20381;-65
2020/12/25 03:01:10;;;;;;;102.25;35.83;;;;;;;;;;5072965;28;20052;-65
2020/12/25 03:03:37;;;;;;;110.60;37.70;;;;;;;;;;5072848;28;20111;-66
2020/12/25 03:06:03;;;;;;;119.75;38.42;;;;;;;;;;5072918;28;20104;-65
2020/12/25 03:08:29;;;;;;;115.97;38.13;;;;;;;;;;5073147;28;20028;-66
2020/12/25 03:10:55;;;;;;;102.10;34.92;;;;;;;;;;5072937;28;20024;-65
2020/12/25 03:13:21;;;;;;;108.68;35.22;;;;;;;;;;5072857;28;20473;-66
2020/12/25 03:15:47;;;;;;;109.15;36.50;;;;;;;;;;5072738;28;20029;-65
2020/12/25 03:18:13;;;;;;;109.88;33.70;;;;;;;;;;5073091;28;20024;-66
2020/12/25 03:20:40;;;;;;;127.45;35.72;;;;;;;;;;5055136;28;20036;-65
2020/12/25 03:23:06;;;;;;;115.68;34.88;;;;;;;;;;5073197;28;20103;-66
2020/12/25 03:25:32;;;;;;;123.72;35.40;;;;;;;;;;5073148;28;20422;-65
2020/12/25 03:27:58;;;;;;;134.40;34.97;;;;;;;;;;5073311;28;20031;-66
2020/12/25 03:30:24;;;;;;;127.65;37.38;;;;;;;;;;5072862;28;20396;-65
2020/12/25 03:32:50;;;;;;;129.10;36.65;;;;;;;;;;5073096;28;20451;-65
2020/12/25 03:35:17;;;;;;;125.20;35.60;;;;;;;;;;5072583;28;20016;-65
2020/12/25 03:37:43;;;;;;;154.90;35.53;;;;;;;;;;5072814;28;20029;-65
2020/12/25 03:40:10;;;;;;;148.27;36.17;;;;;;;;;;5072903;28;20032;-65
2020/12/25 03:42:36;;;;;;;161.20;39.33;;;;;;;;;;5072741;28;20024;-65
2020/12/25 03:45:02;;;;;;;156.23;39.55;;;;;;;;;;5056720;28;20029;-65
2020/12/25 03:47:29;;;;;;;138.50;39.72;;;;;;;;;;5076385;28;20031;-66
2020/12/25 03:49:55;;;;;;;134.60;38.42;;;;;;;;;;5076365;28;20490;-65
2020/12/25 03:52:21;;;;;;;138.85;39.38;;;;;;;;;;5076195;28;20067;-65
2020/12/25 03:54:47;;;;;;;154.60;42.25;;;;;;;;;;5076121;28;21453;-65
2020/12/25 03:57:13;;;;;;;156.20;38.03;;;;;;;;;;5076241;28;20036;-66
2020/12/25 03:59:39;;;;;;;209.10;36.47;;;;;;;;;;5076053;28;20028;-65
2020/12/25 04:02:06;;;;;;;143.65;35.95;;;;;;;;;;5076069;28;20058;-66
2020/12/25 04:04:32;;;;;;;132.60;36.40;;;;;;;;;;5058300;28;20098;-66
2020/12/25 04:06:58;;;;;;;184.32;35.95;;;;;;;;;;5076260;28;20408;-66
2020/12/25 04:09:24;;;;;;;160.82;34.53;;;;;;;;;;5076149;28;20193;-65
2020/12/25 04:11:50;;;;;;;196.23;34.85;;;;;;;;;;5075997;28;20495;-65
2020/12/25 04:14:17;;;;;;;256.25;34.80;;;;;;;;;;5057832;28;20028;-66
2020/12/25 04:16:43;;;;;;;247.65;35.85;;;;;;;;;;5057853;28;20397;-66
2020/12/25 04:19:09;;;;;;;195.57;34.65;;;;;;;;;;5075743;28;20036;-66
2020/12/25 04:21:36;;;;;;;206.60;35.97;;;;;;;;;;5075521;28;20025;-66
2020/12/25 04:24:02;;;;;;;284.35;36.83;;;;;;;;;;5075643;28;20021;-66
2020/12/25 04:26:28;;;;;;;330.98;36.08;;;;;;;;;;5075631;28;20544;-66
2020/12/25 04:28:54;;;;;;;221.35;32.80;;;;;;;;;;5075718;28;20385;-66
2020/12/25 04:31:23;;;;;;;146.88;35.05;;;;;;;;;;5075594;28;20033;-66
2020/12/25 04:33:50;;;;;;;188.18;35.70;;;;;;;;;;5075476;28;20027;-66
2020/12/25 04:36:16;;;;;;;252.65;34.58;;;;;;;;;;5075351;28;20389;-66
2020/12/25 04:38:42;;;;;;;229.75;34.63;;;;;;;;;;5075537;28;20369;-66
2020/12/25 04:41:09;;;;;;;169.55;34.55;;;;;;;;;;5075474;28;20430;-66
2020/12/25 04:43:36;;;;;;;163.40;34.28;;;;;;;;;;5075291;28;20550;-66
2020/12/25 04:46:03;;;;;;;163.02;34.15;;;;;;;;;;5075119;28;20063;-66
2020/12/25 04:48:29;;;;;;;166.23;35.17;;;;;;;;;;5057140;28;20119;-66
2020/12/25 04:50:55;;;;;;;193.63;37.55;;;;;;;;;;5075074;28;20021;-66
2020/12/25 04:53:21;;;;;;;180.38;38.22;;;;;;;;;;5057187;28;20029;-66
2020/12/25 04:55:48;;;;;;;130.80;36.72;;;;;;;;;;5074098;28;20116;-66
2020/12/25 04:58:14;;;;;;;196.57;38.35;;;;;;;;;;5075016;28;20059;-66
2020/12/25 05:00:40;;;;;;;183.35;37.05;;;;;;;;;;5074970;28;20103;-66
2020/12/25 05:03:07;;;;;;;204.45;35.45;;;;;;;;;;5074791;28;20032;-66
2020/12/25 05:05:33;;;;;;;185.15;38.42;;;;;;;;;;5075009;28;20025;-66
2020/12/25 05:08:01;;;;;;;171.35;37.92;;;;;;;;;;5074780;28;20054;-66
2020/12/25 05:10:28;;;;;;;154.10;35.42;;;;;;;;;;5074874;28;20047;-66
2020/12/25 05:12:54;;;;;;;111.63;35.78;;;;;;;;;;5074680;28;20144;-66
2020/12/25 05:15:21;;;;;;;125.20;38.03;;;;;;;;;;5074628;28;20039;-66
2020/12/25 05:17:47;;;;;;;113.35;37.95;;;;;;;;;;5074768;28;20073;-66
2020/12/25 05:20:13;;;;;;;104.25;35.78;;;;;;;;;;5074522;28;20108;-66
2020/12/25 05:22:39;;;;;;;99.80;36.15;;;;;;;;;;5074519;28;20500;-66
2020/12/25 05:25:07;;;;;;;96.53;34.83;;;;;;;;;;5074528;28;20029;-66
2020/12/25 05:27:33;;;;;;;94.47;33.80;;;;;;;;;;5074451;28;20029;-66
2020/12/25 05:30:00;;;;;;;94.93;33.33;;;;;;;;;;5074274;28;20037;-66
2020/12/25 05:32:30;;;;;;;94.70;34.45;;;;;;;;;;5074253;28;20020;-66
2020/12/25 05:34:57;;;;;;;89.72;33.40;;;;;;;;;;5074305;28;20085;-66
2020/12/25 05:37:32;;;;;;;96.70;35.92;;;;;;;;;;5074045;28;20070;-66
2020/12/25 05:40:01;;;;;;;92.43;34.67;;;;;;;;;;5074262;28;20050;-67
2020/12/25 05:42:27;;;;;;;90.57;33.63;;;;;;;;;;5074335;28;20462;-65
2020/12/25 05:44:53;;;;;;;93.18;33.45;;;;;;;;;;5056082;28;20492;-66
2020/12/25 05:47:19;;;;;;;86.50;28.77;;;;;;;;;;5073969;28;20055;-66
2020/12/25 05:49:46;;;;;;;97.28;32.80;;;;;;;;;;5073824;28;20041;-67
2020/12/25 05:52:15;;;;;;;91.50;32.15;;;;;;;;;;5074073;28;20048;-72
2020/12/25 05:54:46;;;;;;;92.00;30.48;;;;;;;;;;5073747;28;20028;-72
2020/12/25 05:57:14;;;;;;;86.30;31.77;;;;;;;;;;5074099;28;20041;-72
2020/12/25 05:59:40;;;;;;;70.07;25.80;;;;;;;;;;5073683;28;20103;-72
2020/12/25 06:02:06;;;;;;;30.23;13.93;;;;;;;;;;5073834;28;20020;-72
2020/12/25 06:04:33;;;;;;;27.63;12.15;;;;;;;;;;5073809;28;20073;-72
2020/12/25 06:07:00;;;;;;;4.40;2.10;;;;;;;;;;5073732;28;20029;-72
2020/12/25 06:09:33;;;;;;;6.55;3.00;;;;;;;;;;5055643;28;20039;-72
2020/12/25 06:12:00;;;;;;;4.28;1.80;;;;;;;;;;5073686;28;20424;-72
2020/12/25 06:14:26;;;;;;;3.95;1.20;;;;;;;;;;5073533;28;20024;-72
2020/12/25 06:17:07;;;;;;;2.45;1.00;;;;;;;;;;5073355;28;20035;-72
2020/12/25 06:19:51;;;;;;;3.28;1.00;;;;;;;;;;5073657;28;20012;-73
2020/12/25 06:22:28;;;;;;;2.70;0.65;;;;;;;;;;5073514;28;20393;-72
2020/12/25 06:24:56;;;;;;;2.45;0.30;;;;;;;;;;5073569;28;20028;-73
2020/12/25 06:27:25;;;;;;;1.15;0.30;;;;;;;;;;5073268;28;20028;-73
2020/12/25 06:29:54;;;;;;;2.17;0.60;;;;;;;;;;5073128;28;20090;-73
2020/12/25 06:32:22;;;;;;;4.10;0.80;;;;;;;;;;5073247;28;20048;-72
2020/12/25 06:34:49;;;;;;;5.95;1.17;;;;;;;;;;5073179;28;20035;-73
2020/12/25 06:37:16;;;;;;;4.95;0.73;;;;;;;;;;5073240;28;20107;-72
2020/12/25 06:39:56;;;;;;;3.20;0.50;;;;;;;;;;5073307;28;20029;-73
2020/12/25 06:42:25;;;;;;;1.40;0.40;;;;;;;;;;5073336;28;20025;-72
2020/12/25 06:44:51;;;;;;;3.72;0.35;;;;;;;;;;5073177;28;20539;-73
2020/12/25 06:47:31;;;;;;;3.63;0.47;;;;;;;;;;5055022;28;20036;-73
2020/12/25 06:49:57;;;;;;;3.65;0.30;;;;;;;;;;5073160;28;20115;-72
2020/12/25 06:52:31;;;;;;;3.10;0.43;;;;;;;;;;5055169;28;20037;-72
2020/12/25 06:54:57;;;;;;;3.22;0.38;;;;;;;;;;5073359;28;20040;-72
2020/12/25 06:57:26;;;;;;;0.65;0.20;;;;;;;;;;5055025;28;20047;-72
2020/12/25 06:59:52;;;;;;;1.98;0.10;;;;;;;;;;5073309;28;20047;-72
2020/12/25 07:02:19;;;;;;;0.85;0.32;;;;;;;;;;5072858;28;20025;-72
2020/12/25 07:04:47;;;;;;;2.38;0.40;;;;;;;;;;5073018;28;20081;-72
2020/12/25 07:07:14;;;;;;;1.48;0.60;;;;;;;;;;5073144;28;20048;-72
2020/12/25 07:09:47;;;;;;;2.45;1.00;;;;;;;;;;5054874;28;20037;-72
2020/12/25 07:12:15;;;;;;;3.47;0.77;;;;;;;;;;5073097;28;20385;-72
2020/12/25 07:14:41;;;;;;;2.15;0.68;;;;;;;;;;5072804;28;20029;-72
2020/12/25 07:17:08;;;;;;;2.80;0.88;;;;;;;;;;5038311;28;20024;-72
2020/12/25 07:19:35;;;;;;;1.35;0.80;;;;;;;;;;5074196;28;20025;-72
2020/12/25 07:22:01;;;;;;;4.60;3.70;;;;;;;;;;5076712;28;20419;-72
2020/12/25 07:24:27;;;;;;;3.47;1.60;;;;;;;;;;5076655;28;20086;-73
2020/12/25 07:26:54;;;;;;;1.98;0.73;;;;;;;;;;5075128;28;20019;-71
2020/12/25 07:29:20;;;;;;;2.05;0.30;;;;;;;;;;5076585;28;20055;-72
2020/12/25 07:31:50;;;;;;;0.63;0.20;;;;;;;;;;5076810;28;20376;-71
2020/12/25 07:34:17;;;;;;;1.48;0.20;;;;;;;;;;5076442;28;20024;-72
2020/12/25 07:36:44;;;;;;;0.65;0.20;;;;;;;;;;5063294;28;20033;-71
2020/12/25 07:39:10;;;;;;;2.20;0.35;;;;;;;;;;5076308;28;20077;-72
2020/12/25 07:41:37;;;;;;;1.40;0.70;;;;;;;;;;5076478;28;20021;-72
2020/12/25 07:44:03;;;;;;;2.55;0.52;;;;;;;;;;5074066;28;20040;-70
2020/12/25 07:46:33;;;;;;;0.90;0.40;;;;;;;;;;5074879;28;20028;-71
2020/12/25 07:48:59;;;;;;;0.82;0.20;;;;;;;;;;5075718;28;20035;-71
2020/12/25 07:51:25;;;;;;;0.90;0.30;;;;;;;;;;5075897;28;20031;-71
2020/12/25 07:53:52;;;;;;;1.10;0.17;;;;;;;;;;5076173;28;20025;-72
2020/12/25 07:56:20;;;;;;;0.57;0.17;;;;;;;;;;5075972;28;20053;-72
2020/12/25 07:58:48;;;;;;;0.70;0.22;;;;;;;;;;5075903;28;20020;-71
2020/12/25 08:01:15;;;;;;;1.40;0.68;;;;;;;;;;5075729;28;20441;-71
2020/12/25 08:03:41;;;;;;;3.45;1.40;;;;;;;;;;5076054;28;20046;-72
2020/12/25 08:06:07;;;;;;;0.57;0.40;;;;;;;;;;5075920;28;20030;-72
2020/12/25 08:08:33;;;;;;;1.08;0.50;;;;;;;;;;5075763;28;20469;-72
2020/12/25 08:11:00;;;;;;;4.75;4.28;;;;;;;;;;5075783;28;20052;-72
2020/12/25 08:13:27;;;;;;;1.63;0.50;;;;;;;;;;5075454;28;20504;-70
2020/12/25 08:15:53;;;;;;;2.22;0.93;;;;;;;;;;5057781;28;20029;-71
2020/12/25 08:18:20;;;;;;;1.65;0.90;;;;;;;;;;5075806;28;20096;-72
2020/12/25 08:20:53;;;;;;;1.08;0.40;;;;;;;;;;5074157;28;20143;-72
2020/12/25 08:23:19;;;;;;;1.83;0.50;;;;;;;;;;5075137;28;20111;-72
2020/12/25 08:25:52;;;;;;;3.90;1.20;;;;;;;;;;5073551;28;20020;-71
2020/12/25 08:28:18;;;;;;;1.75;1.00;;;;;;;;;;5070553;28;20060;-71
2020/12/25 08:30:44;;;;;;;1.95;0.30;;;;;;;;;;5062436;28;20032;-74
2020/12/25 08:33:10;;;;;;;1.52;0.52;;;;;;;;;;5074754;28;20428;-72
2020/12/25 08:35:36;;;;;;;0.60;0.30;;;;;;;;;;5074702;28;20024;-71
2020/12/25 08:38:03;;;;;;;1.58;0.40;;;;;;;;;;5075778;28;20033;-72
2020/12/25 08:40:39;;;;;;;3.03;1.05;;;;;;;;;;5075233;28;20016;-71
2020/12/25 08:43:15;;;;;;;3.08;1.65;;;;;;;;;;5075113;28;20375;-73
2020/12/25 08:46:00;;;;;;;3.80;3.28;;;;;;;;;;5075294;28;20027;-73
2020/12/25 08:48:30;;;;;;;4.72;2.63;;;;;;;;;;5075372;28;20020;-73
2020/12/25 08:51:07;;;;;;;3.63;2.78;;;;;;;;;;5073798;28;20036;-73
2020/12/25 08:53:33;;;;;;;5.43;3.50;;;;;;;;;;5075058;28;20040;-73
2020/12/25 08:56:12;;;;;;;3.70;2.05;;;;;;;;;;5074895;28;20141;-73
2020/12/25 08:58:38;;;;;;;3.35;1.75;;;;;;;;;;5075193;28;20021;-72
2020/12/25 09:01:05;;;;;;;23.17;13.25;;;;;;;;;;5074868;28;20389;-72
2020/12/25 09:03:40;;;;;;;9.85;4.65;;;;;;;;;;5075118;28;20028;-72
2020/12/25 09:06:06;;;;;;;4.35;2.42;;;;;;;;;;5074872;28;20033;-72
2020/12/25 09:08:33;;;;;;;5.80;2.78;;;;;;;;;;5074422;28;20032;-72
2020/12/25 09:10:59;;;;;;;5.25;2.38;;;;;;;;;;5056903;28;20028;-72
2020/12/25 09:13:25;;;;;;;5.88;2.70;;;;;;;;;;5073642;28;20090;-73
2020/12/25 09:15:51;;;;;;;4.65;2.35;;;;;;;;;;5073217;28;20036;-73
2020/12/25 09:18:17;;;;;;;3.47;2.40;;;;;;;;;;5074568;28;20102;-72
2020/12/25 09:20:44;;;;;;;4.38;2.70;;;;;;;;;;5074321;28;20366;-73
2020/12/25 09:23:10;;;;;;;5.03;2.20;;;;;;;;;;5074321;28;20086;-72
2020/12/25 09:25:36;;;;;;;5.05;3.08;;;;;;;;;;5074324;28;20048;-72
2020/12/25 09:28:02;;;;;;;10.88;5.82;;;;;;;;;;5074186;28;20067;-73
2020/12/25 09:30:28;;;;;;;6.90;3.65;;;;;;;;;;5074217;28;20044;-73
2020/12/25 09:32:54;;;;;;;10.40;6.28;;;;;;;;;;5074199;28;20504;-73
2020/12/25 09:35:20;;;;;;;8.70;5.93;;;;;;;;;;5074038;28;20029;-73
2020/12/25 09:37:47;;;;;;;12.20;7.65;;;;;;;;;;5074420;28;20028;-73
2020/12/25 09:40:13;;;;;;;6.55;4.28;;;;;;;;;;5074213;28;20024;-73
2020/12/25 09:42:39;;;;;;;5.40;2.47;;;;;;;;;;5073976;28;20024;-73
2020/12/25 09:45:05;;;;;;;9.85;5.60;;;;;;;;;;5074134;28;20229;-73
2020/12/25 09:47:31;;;;;;;7.90;4.40;;;;;;;;;;5073948;28;20038;-73
2020/12/25 09:49:57;;;;;;;4.25;2.38;;;;;;;;;;5073810;28;20064;-73
2020/12/25 09:52:23;;;;;;;4.28;2.95;;;;;;;;;;5074138;28;20102;-73
2020/12/25 09:54:50;;;;;;;2.95;2.00;;;;;;;;;;5073988;28;20498;-73
2020/12/25 09:57:16;;;;;;;4.53;2.63;;;;;;;;;;5073730;28;20465;-73
2020/12/25 09:59:42;;;;;;;3.47;2.42;;;;;;;;;;5055635;28;20477;-72
2020/12/25 10:02:08;;;;;;;3.83;1.80;;;;;;;;;;5073662;28;20028;-73
2020/12/25 10:04:34;;;;;;;2.90;2.13;;;;;;;;;;5073851;28;20020;-73
2020/12/25 10:07:00;;;;;;;2.97;1.80;;;;;;;;;;5073862;28;20036;-72
2020/12/25 10:09:26;;;;;;;6.93;4.53;;;;;;;;;;5073484;28;20032;-72
2020/12/25 10:11:54;;;;;;;6.47;3.67;;;;;;;;;;5073613;28;20099;-73
2020/12/25 10:14:20;;;;;;;9.50;4.03;;;;;;;;;;5073820;28;20059;-73
2020/12/25 10:16:46;;;;;;;7.75;3.90;;;;;;;;;;5073615;28;20066;-73
2020/12/25 10:19:13;;;;;;;7.70;4.43;;;;;;;;;;5073794;28;20028;-73
2020/12/25 10:21:39;;;;;;;8.70;4.40;;;;;;;;;;5073603;28;20048;-73
2020/12/25 10:24:05;;;;;;;7.63;2.75;;;;;;;;;;5073567;28;20035;-73
2020/12/25 10:26:31;;;;;;;5.22;2.47;;;;;;;;;;5073574;28;20029;-73
2020/12/25 10:28:57;;;;;;;4.10;2.38;;;;;;;;;;5072996;28;20035;-73
2020/12/25 10:31:23;;;;;;;5.65;3.38;;;;;;;;;;5073239;28;20052;-73
2020/12/25 10:33:49;;;;;;;4.82;2.80;;;;;;;;;;5073149;28;20070;-73
2020/12/25 10:36:16;;;;;;;6.85;4.72;;;;;;;;;;5073181;28;20045;-73
2020/12/25 10:38:42;;;;;;;8.10;4.80;;;;;;;;;;5073197;28;20084;-73
2020/12/25 10:41:09;;;;;;;8.82;4.30;;;;;;;;;;5072912;28;20028;-72
2020/12/25 10:43:35;;;;;;;6.78;3.78;;;;;;;;;;5073052;28;20020;-72
2020/12/25 10:46:01;;;;;;;6.95;3.72;;;;;;;;;;5073275;28;20036;-73
2020/12/25 10:48:27;;;;;;;8.77;5.50;;;;;;;;;;5073254;28;20025;-72
2020/12/25 10:50:54;;;;;;;13.88;7.93;;;;;;;;;;5073210;28;20054;-72
2020/12/25 10:53:20;;;;;;;8.20;5.13;;;;;;;;;;5073438;28;20075;-72
2020/12/25 10:55:46;;;;;;;2.90;1.27;;;;;;;;;;5079098;28;20101;-72
2020/12/25 10:58:12;;;;;;;1.10;0.60;;;;;;;;;;5079936;28;20036;-72
2020/12/25 11:00:38;;;;;;;1.20;0.40;;;;;;;;;;5061659;28;20035;-72
2020/12/25 11:03:04;;;;;;;2.33;0.77;;;;;;;;;;5079710;28;20028;-72
2020/12/25 11:05:30;;;;;;;2.72;1.02;;;;;;;;;;5079426;28;20056;-72
2020/12/25 11:07:58;;;;;;;4.72;2.90;;;;;;;;;;5079437;28;20024;-73
2020/12/25 11:10:24;;;;;;;2.33;1.77;;;;;;;;;;5079260;28;20028;-73
2020/12/25 11:12:50;;;;;;;3.67;1.80;;;;;;;;;;5079549;28;20028;-72
2020/12/25 11:15:17;;;;;;;4.63;2.80;;;;;;;;;;5061535;28;20032;-73
2020/12/25 11:17:43;;;;;;;4.55;2.90;;;;;;;;;;5079367;28;20029;-74
2020/12/25 11:20:09;;;;;;;4.47;3.00;;;;;;;;;;5079687;28;20021;-73
2020/12/25 11:22:35;;;;;;;7.30;2.95;;;;;;;;;;5079232;28;20035;-72
2020/12/25 11:25:01;;;;;;;6.18;4.00;;;;;;;;;;5079216;28;20033;-72
2020/12/25 11:27:27;;;;;;;7.30;4.28;;;;;;;;;;5079069;28;20037;-72
2020/12/25 11:29:53;;;;;;;13.38;4.88;;;;;;;;;;5079500;28;20123;-72
2020/12/25 11:32:20;;;;;;;6.50;4.10;;;;;;;;;;5079210;28;20426;-72
2020/12/25 11:34:46;;;;;;;7.22;4.07;;;;;;;;;;5079297;28;20032;-72
2020/12/25 11:37:12;;;;;;;8.10;3.75;;;;;;;;;;5079535;28;20408;-71
2020/12/25 11:39:38;;;;;;;27.60;21.38;;;;;;;;;;5079367;28;20024;-71
2020/12/25 11:42:04;;;;;;;5.03;3.10;;;;;;;;;;5079116;28;20019;-72
2020/12/25 11:44:31;;;;;;;8.07;5.35;;;;;;;;;;5061226;28;20410;-71
2020/12/25 11:47:00;;;;;;;19.23;11.13;;;;;;;;;;5079096;28;20016;-71
2020/12/25 11:49:26;;;;;;;14.05;8.18;;;;;;;;;;5079084;28;20040;-71
2020/12/25 11:51:58;;;;;;;9.93;6.35;;;;;;;;;;5079015;28;20028;-71
2020/12/25 11:54:25;;;;;;;11.68;6.22;;;;;;;;;;5061017;28;20028;-71
2020/12/25 11:56:54;;;;;;;9.43;5.78;;;;;;;;;;5078682;28;20040;-71
2020/12/25 11:59:20;;;;;;;62.95;25.23;;;;;;;;;;5078858;28;20035;-70
2020/12/25 12:01:47;;;;;;;54.17;24.20;;;;;;;;;;5079172;28;20381;-71
2020/12/25 12:04:13;;;;;;;31.08;14.27;;;;;;;;;;5079161;28;20393;-71
2020/12/25 12:06:39;;;;;;;14.25;10.43;;;;;;;;;;5076058;28;20021;-73
2020/12/25 12:09:05;;;;;;;14.63;9.90;;;;;;;;;;5075985;28;20081;-72
2020/12/25 12:11:32;;;;;;;14.48;10.05;;;;;;;;;;5075256;28;20027;-71
2020/12/25 12:13:58;;;;;;;21.30;11.52;;;;;;;;;;5075786;28;20067;-71
2020/12/25 12:16:24;;;;;;;13.27;8.90;;;;;;;;;;5075758;28;20422;-71
2020/12/25 12:18:51;;;;;;;11.52;6.68;;;;;;;;;;5075709;28;20405;-72
2020/12/25 12:21:18;;;;;;;11.80;9.02;;;;;;;;;;5075620;28;20031;-72
2020/12/25 12:23:44;;;;;;;10.98;8.70;;;;;;;;;;5075672;28;20051;-72
2020/12/25 12:26:11;;;;;;;9.68;6.05;;;;;;;;;;5075865;28;20048;-72
2020/12/25 12:28:37;;;;;;;9.68;5.32;;;;;;;;;;5075172;28;20032;-70
2020/12/25 12:31:03;;;;;;;4.70;3.10;;;;;;;;;;5057609;28;20024;-71
2020/12/25 12:33:30;;;;;;;8.95;3.53;;;;;;;;;;5075449;28;20024;-72
2020/12/25 12:35:56;;;;;;;2.40;1.48;;;;;;;;;;5075395;28;20027;-72
2020/12/25 12:38:22;;;;;;;3.58;1.70;;;;;;;;;;5075371;28;20535;-72
2020/12/25 12:40:48;;;;;;;3.22;1.80;;;;;;;;;;5075576;28;20126;-72
2020/12/25 12:43:14;;;;;;;20.65;9.63;;;;;;;;;;5075210;28;20464;-72
2020/12/25 12:45:40;;;;;;;6.80;3.22;;;;;;;;;;5075221;28;20496;-73
2020/12/25 12:48:06;;;;;;;4.00;1.70;;;;;;;;;;5074979;28;20021;-73
2020/12/25 12:50:33;;;;;;;7.22;3.55;;;;;;;;;;5075271;28;20037;-72
2020/12/25 12:52:59;;;;;;;4.47;2.70;;;;;;;;;;5075285;28;20043;-72
2020/12/25 12:55:25;;;;;;;6.35;2.65;;;;;;;;;;5074698;28;20052;-72
2020/12/25 12:57:51;;;;;;;5.13;2.17;;;;;;;;;;5074949;28;20016;-72
2020/12/25 13:00:17;;;;;;;4.32;2.25;;;;;;;;;;5074958;28;20115;-73
2020/12/25 13:02:43;;;;;;;9.35;5.15;;;;;;;;;;5074803;28;20740;-71
2020/12/25 13:05:09;;;;;;;11.85;7.40;;;;;;;;;;5074830;28;20033;-72
2020/12/25 13:07:35;;;;;;;8.30;4.80;;;;;;;;;;5074853;28;20027;-71
2020/12/25 13:10:02;;;;;;;5.43;3.20;;;;;;;;;;5074540;28;20095;-72
2020/12/25 13:12:28;;;;;;;4.97;3.22;;;;;;;;;;5074511;28;20028;-72
2020/12/25 13:14:54;;;;;;;6.72;4.18;;;;;;;;;;5074493;28;20038;-71
2020/12/25 13:17:20;;;;;;;6.45;4.05;;;;;;;;;;5073857;28;20055;-72
2020/12/25 13:19:46;;;;;;;5.15;3.33;;;;;;;;;;5074788;28;20487;-72
2020/12/25 13:22:12;;;;;;;3.13;2.17;;;;;;;;;;5074467;28;20020;-72
2020/12/25 13:24:38;;;;;;;6.05;3.00;;;;;;;;;;5074375;28;20033;-72
2020/12/25 13:27:04;;;;;;;5.72;1.63;;;;;;;;;;5056492;28;20025;-72
2020/12/25 13:29:30;;;;;;;1.30;0.70;;;;;;;;;;5074368;28;20037;-72
2020/12/25 13:31:57;;;;;;;1.45;0.50;;;;;;;;;;5074274;28;20076;-72
2020/12/25 13:34:23;;;;;;;1.10;0.38;;;;;;;;;;5074271;28;20028;-71
2020/12/25 13:36:49;;;;;;;0.40;0.10;;;;;;;;;;5074292;28;20103;-72
2020/12/25 13:39:15;;;;;;;0.70;0.20;;;;;;;;;;5056614;28;20115;-73
2020/12/25 13:41:41;;;;;;;0.90;0.10;;;;;;;;;;5074217;28;20039;-72
2020/12/25 13:44:07;;;;;;;0.20;0.10;;;;;;;;;;5074357;28;20048;-73
2020/12/25 13:46:33;;;;;;;0.95;0.30;;;;;;;;;;5074206;28;20518;-73
2020/12/25 13:49:00;;;;;;;0.60;0.20;;;;;;;;;;5074204;28;20099;-71
2020/12/25 13:51:26;;;;;;;0.52;0.17;;;;;;;;;;5074060;28;20052;-71
2020/12/25 13:53:52;;;;;;;0.10;0.00;;;;;;;;;;5073916;28;20017;-72
2020/12/25 13:56:19;;;;;;;0.20;0.17;;;;;;;;;;5073901;28;20067;-72
2020/12/25 13:58:45;;;;;;;0.75;0.15;;;;;;;;;;5073748;28;20036;-72
2020/12/25 14:01:13;;;;;;;0.10;0.10;;;;;;;;;;5073876;28;20028;-73
2020/12/25 14:03:40;;;;;;;0.93;0.20;;;;;;;;;;5073808;28;20099;-72
2020/12/25 14:06:06;;;;;;;0.20;0.10;;;;;;;;;;5073696;28;20028;-71
2020/12/25 14:08:33;;;;;;;1.73;0.47;;;;;;;;;;5073467;28;20028;-72
2020/12/25 14:10:59;;;;;;;0.57;0.20;;;;;;;;;;5073813;28;20032;-77
2020/12/25 14:13:25;;;;;;;2.97;0.88;;;;;;;;;;5073480;28;20373;-72
2020/12/25 14:15:52;;;;;;;0.40;0.20;;;;;;;;;;5073567;28;20028;-72
2020/12/25 14:18:18;;;;;;;0.38;0.20;;;;;;;;;;5073313;28;20035;-72
2020/12/25 14:20:44;;;;;;;0.60;0.30;;;;;;;;;;5055402;28;20055;-72
2020/12/25 14:23:11;;;;;;;0.88;0.13;;;;;;;;;;5073412;28;20028;-72
2020/12/25 14:25:38;;;;;;;1.52;0.63;;;;;;;;;;5073474;28;20024;-72